sensor_id;sensor_type;location;lat;lon;timestamp;temperature;humidity
8715;DHT22;4394;51.208;8.904;2024-02-26T00:02:10;4.50;99.90
8715;DHT22;4394;51.208;8.904;2024-02-26T00:04:59;4.40;99.90
8715;DHT22;4394;51.208;8.904;2024-02-26T00:07:47;4.50;99.90
8715;DHT22;4394;51.208;8.904;2024-02-26T00:10:36;4.40;99.90
8715;DHT22;4394;51.208;8.904;2024-02-26T00:13:24;4.40;99.90
8715;DHT22;4394;51.208;8.904;2024-02-26T00:16:12;4.40;99.90
8715;DHT22;4394;51.208;8.904;2024-02-26T00:19:00;4.40;99.90
8715;DHT22;4394;51.208;8.904;2024-02-26T00:21:50;4.40;99.90
8715;DHT22;4394;51.208;8.904;2024-02-26T00:24:40;4.30;99.90
8715;DHT22;4394;51.208;8.904;2024-02-26T00:27:29;4.30;99.90
8715;DHT22;4394;51.208;8.904;2024-02-26T00:30:17;4.30;99.90
8715;DHT22;4394;51.208;8.904;2024-02-26T00:33:05;4.30;99.90
8715;DHT22;4394;51.208;8.904;2024-02-26T00:35:54;4.30;99.90
8715;DHT22;4394;51.208;8.904;2024-02-26T00:38:43;4.30;99.90
8715;DHT22;4394;51.208;8.904;2024-02-26T00:41:33;4.20;99.90
8715;DHT22;4394;51.208;8.904;2024-02-26T00:44:21;4.20;99.90
8715;DHT22;4394;51.208;8.904;2024-02-26T00:47:09;4.20;99.90
8715;DHT22;4394;51.208;8.904;2024-02-26T00:49:57;4.20;99.90
8715;DHT22;4394;51.208;8.904;2024-02-26T00:52:46;4.20;99.90
8715;DHT22;4394;51.208;8.904;2024-02-26T00:55:35;4.20;99.90
8715;DHT22;4394;51.208;8.904;2024-02-26T00:58:23;4.20;99.90
8715;DHT22;4394;51.208;8.904;2024-02-26T01:01:11;4.20;99.90
8715;DHT22;4394;51.208;8.904;2024-02-26T01:04:00;4.30;99.90
8715;DHT22;4394;51.208;8.904;2024-02-26T01:06:48;4.20;99.90
8715;DHT22;4394;51.208;8.904;2024-02-26T01:09:36;4.20;99.90
8715;DHT22;4394;51.208;8.904;2024-02-26T01:12:26;4.20;99.90
8715;DHT22;4394;51.208;8.904;2024-02-26T01:15:14;4.20;99.90
8715;DHT22;4394;51.208;8.904;2024-02-26T01:18:03;4.20;99.90
8715;DHT22;4394;51.208;8.904;2024-02-26T01:20:51;4.20;99.90
8715;DHT22;4394;51.208;8.904;2024-02-26T01:23:41;4.10;99.90
8715;DHT22;4394;51.208;8.904;2024-02-26T01:26:29;4.10;99.90
8715;DHT22;4394;51.208;8.904;2024-02-26T01:29:19;4.10;99.90
8715;DHT22;4394;51.208;8.904;2024-02-26T01:32:07;4.10;99.90
8715;DHT22;4394;51.208;8.904;2024-02-26T01:34:55;4.10;99.90
8715;DHT22;4394;51.208;8.904;2024-02-26T01:37:43;4.10;99.90
8715;DHT22;4394;51.208;8.904;2024-02-26T01:40:31;4.10;99.90
8715;DHT22;4394;51.208;8.904;2024-02-26T01:43:20;4.20;99.90
8715;DHT22;4394;51.208;8.904;2024-02-26T01:46:12;4.00;99.90
8715;DHT22;4394;51.208;8.904;2024-02-26T01:49:02;4.00;99.90
8715;DHT22;4394;51.208;8.904;2024-02-26T01:51:50;4.00;99.90
8715;DHT22;4394;51.208;8.904;2024-02-26T01:54:39;4.00;99.90
8715;DHT22;4394;51.208;8.904;2024-02-26T01:57:28;4.00;99.90
8715;DHT22;4394;51.208;8.904;2024-02-26T02:00:18;4.00;99.90
8715;DHT22;4394;51.208;8.904;2024-02-26T02:03:09;3.90;99.90
8715;DHT22;4394;51.208;8.904;2024-02-26T02:05:57;3.90;99.90
8715;DHT22;4394;51.208;8.904;2024-02-26T02:08:46;4.00;99.90
8715;DHT22;4394;51.208;8.904;2024-02-26T02:11:34;4.00;99.90
8715;DHT22;4394;51.208;8.904;2024-02-26T02:14:23;4.00;99.90
8715;DHT22;4394;51.208;8.904;2024-02-26T02:17:11;4.00;99.90
8715;DHT22;4394;51.208;8.904;2024-02-26T02:20:01;4.00;99.90
8715;DHT22;4394;51.208;8.904;2024-02-26T02:22:52;4.00;99.90
8715;DHT22;4394;51.208;8.904;2024-02-26T02:25:40;4.00;99.90
8715;DHT22;4394;51.208;8.904;2024-02-26T02:28:28;4.00;99.90
8715;DHT22;4394;51.208;8.904;2024-02-26T02:31:16;4.00;99.90
8715;DHT22;4394;51.208;8.904;2024-02-26T02:34:04;4.00;99.90
8715;DHT22;4394;51.208;8.904;2024-02-26T02:36:53;4.10;99.90
8715;DHT22;4394;51.208;8.904;2024-02-26T02:39:43;4.10;99.90
8715;DHT22;4394;51.208;8.904;2024-02-26T02:42:31;4.10;99.90
8715;DHT22;4394;51.208;8.904;2024-02-26T02:45:20;4.10;99.90
8715;DHT22;4394;51.208;8.904;2024-02-26T02:48:08;4.10;99.90
8715;DHT22;4394;51.208;8.904;2024-02-26T02:50:56;4.00;99.90
8715;DHT22;4394;51.208;8.904;2024-02-26T02:53:45;4.00;99.90
8715;DHT22;4394;51.208;8.904;2024-02-26T02:56:34;4.00;99.90
8715;DHT22;4394;51.208;8.904;2024-02-26T02:59:22;4.00;99.90
8715;DHT22;4394;51.208;8.904;2024-02-26T03:02:10;4.00;99.90
8715;DHT22;4394;51.208;8.904;2024-02-26T03:04:58;4.00;99.90
8715;DHT22;4394;51.208;8.904;2024-02-26T03:07:47;4.00;99.90
8715;DHT22;4394;51.208;8.904;2024-02-26T03:10:35;4.00;99.90
8715;DHT22;4394;51.208;8.904;2024-02-26T03:13:25;3.90;99.90
8715;DHT22;4394;51.208;8.904;2024-02-26T03:16:13;3.90;99.90
8715;DHT22;4394;51.208;8.904;2024-02-26T03:19:01;3.90;99.90
8715;DHT22;4394;51.208;8.904;2024-02-26T03:21:50;3.80;99.90
8715;DHT22;4394;51.208;8.904;2024-02-26T03:24:38;3.80;99.90
8715;DHT22;4394;51.208;8.904;2024-02-26T03:27:26;3.80;99.90
8715;DHT22;4394;51.208;8.904;2024-02-26T03:30:16;3.90;99.90
8715;DHT22;4394;51.208;8.904;2024-02-26T03:33:04;3.90;99.90
8715;DHT22;4394;51.208;8.904;2024-02-26T03:35:52;3.90;99.90
8715;DHT22;4394;51.208;8.904;2024-02-26T03:38:40;3.90;99.90
8715;DHT22;4394;51.208;8.904;2024-02-26T03:41:29;3.90;99.90
8715;DHT22;4394;51.208;8.904;2024-02-26T03:44:18;3.90;99.90
8715;DHT22;4394;51.208;8.904;2024-02-26T03:47:08;3.90;99.90
8715;DHT22;4394;51.208;8.904;2024-02-26T03:49:56;3.90;99.90
8715;DHT22;4394;51.208;8.904;2024-02-26T03:52:46;3.80;99.90
8715;DHT22;4394;51.208;8.904;2024-02-26T03:55:34;3.90;99.90
8715;DHT22;4394;51.208;8.904;2024-02-26T03:58:22;3.90;99.90
8715;DHT22;4394;51.208;8.904;2024-02-26T04:01:10;3.90;99.90
8715;DHT22;4394;51.208;8.904;2024-02-26T04:03:59;4.00;99.90
8715;DHT22;4394;51.208;8.904;2024-02-26T04:06:48;4.00;99.90
8715;DHT22;4394;51.208;8.904;2024-02-26T04:09:36;4.00;99.90
8715;DHT22;4394;51.208;8.904;2024-02-26T04:12:24;4.00;99.90
8715;DHT22;4394;51.208;8.904;2024-02-26T04:15:12;4.00;99.90
8715;DHT22;4394;51.208;8.904;2024-02-26T04:18:01;4.10;99.90
8715;DHT22;4394;51.208;8.904;2024-02-26T04:20:51;4.00;99.90
8715;DHT22;4394;51.208;8.904;2024-02-26T04:23:39;3.90;99.90
8715;DHT22;4394;51.208;8.904;2024-02-26T04:26:27;3.90;99.90
8715;DHT22;4394;51.208;8.904;2024-02-26T04:29:16;3.90;99.90
8715;DHT22;4394;51.208;8.904;2024-02-26T04:32:05;3.90;99.90
8715;DHT22;4394;51.208;8.904;2024-02-26T04:34:54;4.00;99.90
8715;DHT22;4394;51.208;8.904;2024-02-26T04:37:43;4.00;99.90
8715;DHT22;4394;51.208;8.904;2024-02-26T04:40:31;4.10;99.90
8715;DHT22;4394;51.208;8.904;2024-02-26T04:43:19;4.10;99.90
8715;DHT22;4394;51.208;8.904;2024-02-26T04:46:07;4.10;99.90
8715;DHT22;4394;51.208;8.904;2024-02-26T04:48:56;4.10;99.90
8715;DHT22;4394;51.208;8.904;2024-02-26T04:51:44;4.10;99.90
8715;DHT22;4394;51.208;8.904;2024-02-26T04:54:36;4.10;99.90
8715;DHT22;4394;51.208;8.904;2024-02-26T04:57:24;4.10;99.90
8715;DHT22;4394;51.208;8.904;2024-02-26T05:00:14;4.20;99.90
8715;DHT22;4394;51.208;8.904;2024-02-26T05:03:02;4.20;99.90
8715;DHT22;4394;51.208;8.904;2024-02-26T05:05:50;4.10;99.90
8715;DHT22;4394;51.208;8.904;2024-02-26T05:08:39;4.10;99.90
8715;DHT22;4394;51.208;8.904;2024-02-26T05:11:28;4.10;99.90
8715;DHT22;4394;51.208;8.904;2024-02-26T05:14:16;4.10;99.90
8715;DHT22;4394;51.208;8.904;2024-02-26T05:17:04;4.10;99.90
8715;DHT22;4394;51.208;8.904;2024-02-26T05:19:53;4.00;99.90
8715;DHT22;4394;51.208;8.904;2024-02-26T05:22:41;4.00;99.90
8715;DHT22;4394;51.208;8.904;2024-02-26T05:25:29;4.10;99.90
8715;DHT22;4394;51.208;8.904;2024-02-26T05:28:19;4.20;99.90
8715;DHT22;4394;51.208;8.904;2024-02-26T05:31:08;4.00;99.90
8715;DHT22;4394;51.208;8.904;2024-02-26T05:33:56;4.20;99.90
8715;DHT22;4394;51.208;8.904;2024-02-26T05:36:44;4.20;99.90
8715;DHT22;4394;51.208;8.904;2024-02-26T05:39:32;4.10;99.90
8715;DHT22;4394;51.208;8.904;2024-02-26T05:42:21;4.10;99.90
8715;DHT22;4394;51.208;8.904;2024-02-26T05:45:11;4.10;99.90
8715;DHT22;4394;51.208;8.904;2024-02-26T05:47:59;4.10;99.90
8715;DHT22;4394;51.208;8.904;2024-02-26T05:50:48;4.00;99.90
8715;DHT22;4394;51.208;8.904;2024-02-26T05:53:36;4.00;99.90
8715;DHT22;4394;51.208;8.904;2024-02-26T05:56:24;4.00;99.90
8715;DHT22;4394;51.208;8.904;2024-02-26T05:59:12;4.00;99.90
8715;DHT22;4394;51.208;8.904;2024-02-26T06:02:03;4.10;99.90
8715;DHT22;4394;51.208;8.904;2024-02-26T06:04:52;4.10;99.90
8715;DHT22;4394;51.208;8.904;2024-02-26T06:07:40;4.10;99.90
8715;DHT22;4394;51.208;8.904;2024-02-26T06:10:28;4.10;99.90
8715;DHT22;4394;51.208;8.904;2024-02-26T06:13:16;4.10;99.90
8715;DHT22;4394;51.208;8.904;2024-02-26T06:16:05;4.10;99.90
8715;DHT22;4394;51.208;8.904;2024-02-26T06:18:54;4.10;99.90
8715;DHT22;4394;51.208;8.904;2024-02-26T06:21:43;4.10;99.90
8715;DHT22;4394;51.208;8.904;2024-02-26T06:24:31;4.10;99.90
8715;DHT22;4394;51.208;8.904;2024-02-26T06:27:19;4.00;99.90
8715;DHT22;4394;51.208;8.904;2024-02-26T06:30:09;4.00;99.90
8715;DHT22;4394;51.208;8.904;2024-02-26T06:32:58;4.00;99.90
8715;DHT22;4394;51.208;8.904;2024-02-26T06:35:48;4.00;99.90
8715;DHT22;4394;51.208;8.904;2024-02-26T06:38:36;4.00;99.90
8715;DHT22;4394;51.208;8.904;2024-02-26T06:41:24;4.00;99.90
8715;DHT22;4394;51.208;8.904;2024-02-26T06:44:14;4.00;99.90
8715;DHT22;4394;51.208;8.904;2024-02-26T06:47:02;4.00;99.90
8715;DHT22;4394;51.208;8.904;2024-02-26T06:49:50;3.90;99.90
8715;DHT22;4394;51.208;8.904;2024-02-26T06:52:40;4.10;99.90
8715;DHT22;4394;51.208;8.904;2024-02-26T06:55:28;4.10;99.90
8715;DHT22;4394;51.208;8.904;2024-02-26T06:58:17;4.10;99.90
8715;DHT22;4394;51.208;8.904;2024-02-26T07:01:05;4.10;99.90
8715;DHT22;4394;51.208;8.904;2024-02-26T07:03:55;4.10;99.90
8715;DHT22;4394;51.208;8.904;2024-02-26T07:06:43;4.20;99.90
8715;DHT22;4394;51.208;8.904;2024-02-26T07:09:34;4.20;99.90
8715;DHT22;4394;51.208;8.904;2024-02-26T07:12:22;4.20;99.90
8715;DHT22;4394;51.208;8.904;2024-02-26T07:15:11;4.30;99.90
8715;DHT22;4394;51.208;8.904;2024-02-26T07:17:59;4.30;99.90
8715;DHT22;4394;51.208;8.904;2024-02-26T07:20:51;4.30;99.90
8715;DHT22;4394;51.208;8.904;2024-02-26T07:23:39;4.40;99.90
8715;DHT22;4394;51.208;8.904;2024-02-26T07:26:28;4.40;99.90
8715;DHT22;4394;51.208;8.904;2024-02-26T07:29:17;4.50;99.90
8715;DHT22;4394;51.208;8.904;2024-02-26T07:32:06;4.50;99.90
8715;DHT22;4394;51.208;8.904;2024-02-26T07:34:54;4.50;99.90
8715;DHT22;4394;51.208;8.904;2024-02-26T07:37:42;4.50;99.90
8715;DHT22;4394;51.208;8.904;2024-02-26T07:40:30;4.60;99.90
8715;DHT22;4394;51.208;8.904;2024-02-26T07:43:20;4.60;99.90
8715;DHT22;4394;51.208;8.904;2024-02-26T07:46:11;4.60;99.90
8715;DHT22;4394;51.208;8.904;2024-02-26T07:48:59;4.70;99.90
8715;DHT22;4394;51.208;8.904;2024-02-26T07:51:48;4.70;99.90
8715;DHT22;4394;51.208;8.904;2024-02-26T07:54:36;4.70;99.90
8715;DHT22;4394;51.208;8.904;2024-02-26T07:57:24;4.70;99.90
8715;DHT22;4394;51.208;8.904;2024-02-26T08:00:14;4.70;99.90
8715;DHT22;4394;51.208;8.904;2024-02-26T08:03:04;4.80;99.90
8715;DHT22;4394;51.208;8.904;2024-02-26T08:05:52;4.80;99.90
8715;DHT22;4394;51.208;8.904;2024-02-26T08:08:42;4.80;99.90
8715;DHT22;4394;51.208;8.904;2024-02-26T08:11:30;4.80;99.90
8715;DHT22;4394;51.208;8.904;2024-02-26T08:14:19;4.90;99.90
8715;DHT22;4394;51.208;8.904;2024-02-26T08:17:08;5.00;99.90
8715;DHT22;4394;51.208;8.904;2024-02-26T08:19:56;5.00;99.90
8715;DHT22;4394;51.208;8.904;2024-02-26T08:22:44;5.10;99.90
8715;DHT22;4394;51.208;8.904;2024-02-26T08:25:32;5.20;99.90
8715;DHT22;4394;51.208;8.904;2024-02-26T08:28:20;5.30;99.90
8715;DHT22;4394;51.208;8.904;2024-02-26T08:31:08;5.40;99.90
8715;DHT22;4394;51.208;8.904;2024-02-26T08:33:57;5.50;99.90
8715;DHT22;4394;51.208;8.904;2024-02-26T08:36:47;5.60;99.90
8715;DHT22;4394;51.208;8.904;2024-02-26T08:39:35;5.70;99.90
8715;DHT22;4394;51.208;8.904;2024-02-26T08:42:24;5.80;99.90
8715;DHT22;4394;51.208;8.904;2024-02-26T08:45:12;6.10;99.90
8715;DHT22;4394;51.208;8.904;2024-02-26T08:48:00;6.10;99.90
8715;DHT22;4394;51.208;8.904;2024-02-26T08:50:50;6.20;99.90
8715;DHT22;4394;51.208;8.904;2024-02-26T08:53:38;6.30;99.90
8715;DHT22;4394;51.208;8.904;2024-02-26T08:56:29;6.40;99.90
8715;DHT22;4394;51.208;8.904;2024-02-26T08:59:18;6.40;99.90
8715;DHT22;4394;51.208;8.904;2024-02-26T09:02:09;6.50;99.90
8715;DHT22;4394;51.208;8.904;2024-02-26T09:04:57;6.60;99.90
8715;DHT22;4394;51.208;8.904;2024-02-26T09:07:46;6.60;99.90
8715;DHT22;4394;51.208;8.904;2024-02-26T09:10:34;6.70;99.90
8715;DHT22;4394;51.208;8.904;2024-02-26T09:13:23;6.70;99.90
8715;DHT22;4394;51.208;8.904;2024-02-26T09:16:12;6.80;99.90
8715;DHT22;4394;51.208;8.904;2024-02-26T09:19:01;6.90;99.90
8715;DHT22;4394;51.208;8.904;2024-02-26T09:21:50;7.00;99.90
8715;DHT22;4394;51.208;8.904;2024-02-26T09:24:39;7.00;99.90
8715;DHT22;4394;51.208;8.904;2024-02-26T09:27:27;7.10;99.90
8715;DHT22;4394;51.208;8.904;2024-02-26T09:30:17;7.20;99.90
8715;DHT22;4394;51.208;8.904;2024-02-26T09:33:06;7.20;99.90
8715;DHT22;4394;51.208;8.904;2024-02-26T09:35:54;7.30;99.90
8715;DHT22;4394;51.208;8.904;2024-02-26T09:38:42;7.30;99.90
8715;DHT22;4394;51.208;8.904;2024-02-26T09:41:47;7.30;99.90
8715;DHT22;4394;51.208;8.904;2024-02-26T09:44:36;7.40;99.90
8715;DHT22;4394;51.208;8.904;2024-02-26T09:47:26;7.40;99.90
8715;DHT22;4394;51.208;8.904;2024-02-26T09:50:17;7.50;99.90
8715;DHT22;4394;51.208;8.904;2024-02-26T09:53:11;7.50;99.90
8715;DHT22;4394;51.208;8.904;2024-02-26T09:56:01;7.50;99.90
8715;DHT22;4394;51.208;8.904;2024-02-26T09:58:52;7.50;99.90
8715;DHT22;4394;51.208;8.904;2024-02-26T10:01:42;7.60;99.90
8715;DHT22;4394;51.208;8.904;2024-02-26T10:04:32;7.60;99.90
8715;DHT22;4394;51.208;8.904;2024-02-26T10:07:20;7.80;99.90
8715;DHT22;4394;51.208;8.904;2024-02-26T10:10:09;7.70;99.90
8715;DHT22;4394;51.208;8.904;2024-02-26T10:12:58;7.90;99.90
8715;DHT22;4394;51.208;8.904;2024-02-26T10:15:48;8.00;99.90
8715;DHT22;4394;51.208;8.904;2024-02-26T10:18:47;8.00;99.90
8715;DHT22;4394;51.208;8.904;2024-02-26T10:21:38;8.20;99.90
8715;DHT22;4394;51.208;8.904;2024-02-26T10:24:26;8.30;99.90
8715;DHT22;4394;51.208;8.904;2024-02-26T10:27:15;8.30;99.90
8715;DHT22;4394;51.208;8.904;2024-02-26T10:30:04;8.30;99.90
8715;DHT22;4394;51.208;8.904;2024-02-26T10:32:56;8.40;99.90
8715;DHT22;4394;51.208;8.904;2024-02-26T10:35:46;8.50;99.90
8715;DHT22;4394;51.208;8.904;2024-02-26T10:38:35;8.50;99.90
8715;DHT22;4394;51.208;8.904;2024-02-26T10:41:23;8.60;99.90
8715;DHT22;4394;51.208;8.904;2024-02-26T10:44:12;8.70;99.90
8715;DHT22;4394;51.208;8.904;2024-02-26T10:47:05;8.70;99.90
8715;DHT22;4394;51.208;8.904;2024-02-26T10:49:57;8.80;99.90
8715;DHT22;4394;51.208;8.904;2024-02-26T10:52:46;8.80;99.90
8715;DHT22;4394;51.208;8.904;2024-02-26T10:55:35;8.80;99.90
8715;DHT22;4394;51.208;8.904;2024-02-26T10:58:25;8.80;99.90
8715;DHT22;4394;51.208;8.904;2024-02-26T11:01:14;8.80;99.90
8715;DHT22;4394;51.208;8.904;2024-02-26T11:04:03;8.80;99.90
8715;DHT22;4394;51.208;8.904;2024-02-26T11:06:54;8.80;99.90
8715;DHT22;4394;51.208;8.904;2024-02-26T11:09:45;8.80;99.90
8715;DHT22;4394;51.208;8.904;2024-02-26T11:12:39;8.80;99.90
8715;DHT22;4394;51.208;8.904;2024-02-26T11:15:28;8.80;99.90
8715;DHT22;4394;51.208;8.904;2024-02-26T11:18:19;8.80;99.90
8715;DHT22;4394;51.208;8.904;2024-02-26T11:21:10;8.90;99.90
8715;DHT22;4394;51.208;8.904;2024-02-26T11:24:02;9.00;99.90
8715;DHT22;4394;51.208;8.904;2024-02-26T11:26:52;9.00;99.90
8715;DHT22;4394;51.208;8.904;2024-02-26T11:29:48;9.00;99.90
8715;DHT22;4394;51.208;8.904;2024-02-26T11:32:39;9.00;99.90
8715;DHT22;4394;51.208;8.904;2024-02-26T11:35:28;9.00;99.90
8715;DHT22;4394;51.208;8.904;2024-02-26T11:38:21;9.00;99.90
8715;DHT22;4394;51.208;8.904;2024-02-26T11:41:10;9.10;99.90
8715;DHT22;4394;51.208;8.904;2024-02-26T11:43:59;9.10;99.90
8715;DHT22;4394;51.208;8.904;2024-02-26T11:46:48;9.10;99.90
8715;DHT22;4394;51.208;8.904;2024-02-26T11:49:36;9.10;99.90
8715;DHT22;4394;51.208;8.904;2024-02-26T11:52:24;9.20;99.90
8715;DHT22;4394;51.208;8.904;2024-02-26T11:55:31;9.20;99.90
8715;DHT22;4394;51.208;8.904;2024-02-26T11:58:21;9.20;99.90
8715;DHT22;4394;51.208;8.904;2024-02-26T12:01:40;9.20;99.90
8715;DHT22;4394;51.208;8.904;2024-02-26T12:04:30;9.20;99.90
8715;DHT22;4394;51.208;8.904;2024-02-26T12:07:19;9.10;99.90
8715;DHT22;4394;51.208;8.904;2024-02-26T12:10:15;9.10;99.90
8715;DHT22;4394;51.208;8.904;2024-02-26T12:13:06;9.20;99.90
8715;DHT22;4394;51.208;8.904;2024-02-26T12:15:57;9.20;99.90
8715;DHT22;4394;51.208;8.904;2024-02-26T12:18:47;9.20;99.90
8715;DHT22;4394;51.208;8.904;2024-02-26T12:21:36;9.20;99.90
8715;DHT22;4394;51.208;8.904;2024-02-26T12:24:24;9.20;99.90
8715;DHT22;4394;51.208;8.904;2024-02-26T12:27:13;9.20;99.90
8715;DHT22;4394;51.208;8.904;2024-02-26T12:30:02;9.30;99.90
8715;DHT22;4394;51.208;8.904;2024-02-26T12:32:53;9.30;99.90
8715;DHT22;4394;51.208;8.904;2024-02-26T12:35:44;9.30;99.90
8715;DHT22;4394;51.208;8.904;2024-02-26T12:38:35;9.30;99.90
8715;DHT22;4394;51.208;8.904;2024-02-26T12:41:24;9.40;99.90
8715;DHT22;4394;51.208;8.904;2024-02-26T12:44:12;9.40;99.90
8715;DHT22;4394;51.208;8.904;2024-02-26T12:47:01;9.40;99.90
8715;DHT22;4394;51.208;8.904;2024-02-26T12:49:51;9.50;99.90
8715;DHT22;4394;51.208;8.904;2024-02-26T12:52:40;9.60;99.90
8715;DHT22;4394;51.208;8.904;2024-02-26T12:55:29;9.60;99.90
8715;DHT22;4394;51.208;8.904;2024-02-26T12:58:21;9.70;99.90
8715;DHT22;4394;51.208;8.904;2024-02-26T13:01:14;9.80;99.90
8715;DHT22;4394;51.208;8.904;2024-02-26T13:04:03;9.80;99.90
8715;DHT22;4394;51.208;8.904;2024-02-26T13:06:55;9.90;99.90
8715;DHT22;4394;51.208;8.904;2024-02-26T13:09:47;10.00;99.90
8715;DHT22;4394;51.208;8.904;2024-02-26T13:12:35;10.00;99.90
8715;DHT22;4394;51.208;8.904;2024-02-26T13:15:23;10.00;99.90
8715;DHT22;4394;51.208;8.904;2024-02-26T13:18:13;10.00;99.90
8715;DHT22;4394;51.208;8.904;2024-02-26T13:21:08;10.00;99.90
8715;DHT22;4394;51.208;8.904;2024-02-26T13:23:58;10.00;99.90
8715;DHT22;4394;51.208;8.904;2024-02-26T13:26:46;10.00;99.90
8715;DHT22;4394;51.208;8.904;2024-02-26T13:29:34;10.00;99.90
8715;DHT22;4394;51.208;8.904;2024-02-26T13:32:22;10.00;99.90
8715;DHT22;4394;51.208;8.904;2024-02-26T13:35:11;9.90;99.90
8715;DHT22;4394;51.208;8.904;2024-02-26T13:38:00;9.90;99.90
8715;DHT22;4394;51.208;8.904;2024-02-26T13:40:51;9.90;99.90
8715;DHT22;4394;51.208;8.904;2024-02-26T13:43:39;9.90;99.90
8715;DHT22;4394;51.208;8.904;2024-02-26T13:46:27;9.90;99.90
8715;DHT22;4394;51.208;8.904;2024-02-26T13:49:15;9.80;99.90
8715;DHT22;4394;51.208;8.904;2024-02-26T13:52:04;9.90;99.90
8715;DHT22;4394;51.208;8.904;2024-02-26T13:54:52;9.80;99.90
8715;DHT22;4394;51.208;8.904;2024-02-26T13:57:42;9.80;99.90
8715;DHT22;4394;51.208;8.904;2024-02-26T14:00:30;9.80;99.90
8715;DHT22;4394;51.208;8.904;2024-02-26T14:03:21;9.80;99.90
8715;DHT22;4394;51.208;8.904;2024-02-26T14:06:09;9.70;99.90
8715;DHT22;4394;51.208;8.904;2024-02-26T14:08:57;9.70;99.90
8715;DHT22;4394;51.208;8.904;2024-02-26T14:11:45;9.70;99.90
8715;DHT22;4394;51.208;8.904;2024-02-26T14:14:35;9.70;99.90
8715;DHT22;4394;51.208;8.904;2024-02-26T14:17:25;9.70;99.90
8715;DHT22;4394;51.208;8.904;2024-02-26T14:20:13;9.70;99.90
8715;DHT22;4394;51.208;8.904;2024-02-26T14:23:01;9.70;99.90
8715;DHT22;4394;51.208;8.904;2024-02-26T14:25:49;9.60;99.90
8715;DHT22;4394;51.208;8.904;2024-02-26T14:28:37;9.60;99.90
8715;DHT22;4394;51.208;8.904;2024-02-26T14:31:27;9.60;99.90
8715;DHT22;4394;51.208;8.904;2024-02-26T14:34:15;9.60;99.90
8715;DHT22;4394;51.208;8.904;2024-02-26T14:37:05;9.60;99.90
8715;DHT22;4394;51.208;8.904;2024-02-26T14:39:53;9.60;99.90
8715;DHT22;4394;51.208;8.904;2024-02-26T14:42:41;9.50;99.90
8715;DHT22;4394;51.208;8.904;2024-02-26T14:45:29;9.50;99.90
8715;DHT22;4394;51.208;8.904;2024-02-26T14:48:20;9.50;99.90
8715;DHT22;4394;51.208;8.904;2024-02-26T14:51:08;9.50;99.90
8715;DHT22;4394;51.208;8.904;2024-02-26T14:53:56;9.50;99.90
8715;DHT22;4394;51.208;8.904;2024-02-26T14:56:46;9.40;99.90
8715;DHT22;4394;51.208;8.904;2024-02-26T14:59:35;9.40;99.90
8715;DHT22;4394;51.208;8.904;2024-02-26T15:02:23;9.40;99.90
8715;DHT22;4394;51.208;8.904;2024-02-26T15:05:13;9.30;99.90
8715;DHT22;4394;51.208;8.904;2024-02-26T15:08:03;9.30;99.90
8715;DHT22;4394;51.208;8.904;2024-02-26T15:10:51;9.30;99.90
8715;DHT22;4394;51.208;8.904;2024-02-26T15:13:39;9.30;99.90
8715;DHT22;4394;51.208;8.904;2024-02-26T15:16:27;9.20;99.90
8715;DHT22;4394;51.208;8.904;2024-02-26T15:19:15;9.20;99.90
8715;DHT22;4394;51.208;8.904;2024-02-26T15:22:06;9.20;99.90
8715;DHT22;4394;51.208;8.904;2024-02-26T15:24:54;9.20;99.90
8715;DHT22;4394;51.208;8.904;2024-02-26T15:27:42;9.20;99.90
8715;DHT22;4394;51.208;8.904;2024-02-26T15:30:30;9.20;99.90
8715;DHT22;4394;51.208;8.904;2024-02-26T15:33:19;9.10;99.90
8715;DHT22;4394;51.208;8.904;2024-02-26T15:36:08;9.10;99.90
8715;DHT22;4394;51.208;8.904;2024-02-26T15:38:58;9.10;99.90
8715;DHT22;4394;51.208;8.904;2024-02-26T15:41:46;9.10;99.90
8715;DHT22;4394;51.208;8.904;2024-02-26T15:44:37;9.10;99.90
8715;DHT22;4394;51.208;8.904;2024-02-26T15:47:25;9.10;99.90
8715;DHT22;4394;51.208;8.904;2024-02-26T15:50:14;9.10;99.90
8715;DHT22;4394;51.208;8.904;2024-02-26T15:53:02;9.00;99.90
8715;DHT22;4394;51.208;8.904;2024-02-26T15:55:51;9.00;99.90
8715;DHT22;4394;51.208;8.904;2024-02-26T15:58:40;9.10;99.90
8715;DHT22;4394;51.208;8.904;2024-02-26T16:01:28;9.00;99.90
8715;DHT22;4394;51.208;8.904;2024-02-26T16:04:18;9.00;99.90
8715;DHT22;4394;51.208;8.904;2024-02-26T16:07:07;9.00;99.90
8715;DHT22;4394;51.208;8.904;2024-02-26T16:10:00;9.00;99.90
8715;DHT22;4394;51.208;8.904;2024-02-26T16:12:53;9.00;99.90
8715;DHT22;4394;51.208;8.904;2024-02-26T16:15:45;9.00;99.90
8715;DHT22;4394;51.208;8.904;2024-02-26T16:18:36;9.10;99.90
8715;DHT22;4394;51.208;8.904;2024-02-26T16:21:24;9.00;99.90
8715;DHT22;4394;51.208;8.904;2024-02-26T16:24:12;9.00;99.90
8715;DHT22;4394;51.208;8.904;2024-02-26T16:27:00;9.00;99.90
8715;DHT22;4394;51.208;8.904;2024-02-26T16:29:50;9.00;99.90
8715;DHT22;4394;51.208;8.904;2024-02-26T16:32:39;9.00;99.90
8715;DHT22;4394;51.208;8.904;2024-02-26T16:35:27;9.00;99.90
8715;DHT22;4394;51.208;8.904;2024-02-26T16:38:15;9.00;99.90
8715;DHT22;4394;51.208;8.904;2024-02-26T16:41:03;9.00;99.90
8715;DHT22;4394;51.208;8.904;2024-02-26T16:43:51;8.90;99.90
8715;DHT22;4394;51.208;8.904;2024-02-26T16:46:41;8.90;99.90
8715;DHT22;4394;51.208;8.904;2024-02-26T16:49:29;8.90;99.90
8715;DHT22;4394;51.208;8.904;2024-02-26T16:52:17;8.90;99.90
8715;DHT22;4394;51.208;8.904;2024-02-26T16:55:06;8.80;99.90
8715;DHT22;4394;51.208;8.904;2024-02-26T16:57:55;8.80;99.90
8715;DHT22;4394;51.208;8.904;2024-02-26T17:00:43;8.80;99.90
8715;DHT22;4394;51.208;8.904;2024-02-26T17:03:34;8.80;99.90
8715;DHT22;4394;51.208;8.904;2024-02-26T17:06:22;8.80;99.90
8715;DHT22;4394;51.208;8.904;2024-02-26T17:09:11;8.80;99.90
8715;DHT22;4394;51.208;8.904;2024-02-26T17:11:59;8.80;99.90
8715;DHT22;4394;51.208;8.904;2024-02-26T17:14:47;8.80;99.90
8715;DHT22;4394;51.208;8.904;2024-02-26T17:17:38;8.70;99.90
8715;DHT22;4394;51.208;8.904;2024-02-26T17:20:27;8.70;99.90
8715;DHT22;4394;51.208;8.904;2024-02-26T17:23:15;8.70;99.90
8715;DHT22;4394;51.208;8.904;2024-02-26T17:26:04;8.70;99.90
8715;DHT22;4394;51.208;8.904;2024-02-26T17:28:55;8.60;99.90
8715;DHT22;4394;51.208;8.904;2024-02-26T17:31:45;8.60;99.90
8715;DHT22;4394;51.208;8.904;2024-02-26T17:34:34;8.60;99.90
8715;DHT22;4394;51.208;8.904;2024-02-26T17:37:24;8.50;99.90
8715;DHT22;4394;51.208;8.904;2024-02-26T17:40:13;8.60;99.90
8715;DHT22;4394;51.208;8.904;2024-02-26T17:43:01;8.50;99.90
8715;DHT22;4394;51.208;8.904;2024-02-26T17:45:49;8.60;99.90
8715;DHT22;4394;51.208;8.904;2024-02-26T17:48:37;8.50;99.90
8715;DHT22;4394;51.208;8.904;2024-02-26T17:51:29;8.50;99.90
8715;DHT22;4394;51.208;8.904;2024-02-26T17:54:18;8.50;99.90
8715;DHT22;4394;51.208;8.904;2024-02-26T17:57:07;8.50;99.90
8715;DHT22;4394;51.208;8.904;2024-02-26T17:59:55;8.50;99.90
8715;DHT22;4394;51.208;8.904;2024-02-26T18:02:43;8.50;99.90
8715;DHT22;4394;51.208;8.904;2024-02-26T18:05:31;8.60;99.90
8715;DHT22;4394;51.208;8.904;2024-02-26T18:08:19;8.40;99.90
8715;DHT22;4394;51.208;8.904;2024-02-26T18:11:10;8.40;99.90
8715;DHT22;4394;51.208;8.904;2024-02-26T18:13:59;8.30;99.90
8715;DHT22;4394;51.208;8.904;2024-02-26T18:16:48;8.40;99.90
8715;DHT22;4394;51.208;8.904;2024-02-26T18:19:36;8.40;99.90
8715;DHT22;4394;51.208;8.904;2024-02-26T18:22:24;8.40;99.90
8715;DHT22;4394;51.208;8.904;2024-02-26T18:25:12;8.40;99.90
8715;DHT22;4394;51.208;8.904;2024-02-26T18:28:02;8.40;99.90
8715;DHT22;4394;51.208;8.904;2024-02-26T18:30:50;8.40;99.90
8715;DHT22;4394;51.208;8.904;2024-02-26T18:33:38;8.40;99.90
8715;DHT22;4394;51.208;8.904;2024-02-26T18:36:26;8.30;99.90
8715;DHT22;4394;51.208;8.904;2024-02-26T18:39:15;8.40;99.90
8715;DHT22;4394;51.208;8.904;2024-02-26T18:42:04;8.40;99.90